FJDG

Diego Garcia NSF Airport

Camp Justice, British Indian Ocean Territory
METAR FJDG 221855Z 00000KT 9999 FEW020 SCT100 SCT220 27/25 A2991 RMK SLP125 T02650250
Observed Flight Rules
Oct-22 @ 18:55 UTC (45 minutes ago) Visual Flight Rules
Visibility Clouds
10,000+ meters
  • Few at 2,000' AGL
  • Scattered at 10,000' AGL
  • Scattered at 22,000' AGL
Temperatures Readings
Current 27°C / 81°F
Dewpoint 25°C / 77°F
Humidity 89%
Altimeter 29.91" Hg
Pressure 1012.5 hPa
Elevation 3
METAR FJDG 221855Z 00000KT 9999 FEW020 SCT100 SCT220 27/25 A2991 RMK SLP125 T02650250
Observed Flight Rules
Oct-22 @ 18:55 UTC
(45 minutes ago)
VFR
Clouds
  • Few at 2,000' AGL
  • Scattered at 10,000' AGL
  • Scattered at 22,000' AGL
Temperature Dewpoint
27°C / 81°F 25°C / 77°F
Humidity Altimeter Pressure
89% 29.91" Hg 1012.5 hPa